KEEN

Dillant-Hopkins Airport

Keene, New Hampshire, USA
METAR KEEN 200056Z AUTO 21004KT 10SM SCT035 M02/M06 A2992 RMK AO2 SLP152 T10221061 FZRANO
Observed Flight Rules
Jan-20 @ 00:56 UTC (24 minutes ago) Visual Flight Rules
Wind Visibility Clouds
210° at 4 knots 10 miles
  • Scattered at 3,500' AGL
Temperatures Readings
Current -2°C / 28°F
Dewpoint -6°C / 21°F
Humidity 74%
Altimeter 29.92" Hg
Pressure 1015.2 hPa
Elevation 149
METAR KEEN 200056Z AUTO 21004KT 10SM SCT035 M02/M06 A2992 RMK AO2 SLP152 T10221061 FZRANO
Observed Flight Rules
Jan-20 @ 00:56 UTC
(24 minutes ago)
VFR
Wind Visibility
210° at 4 knots 10 miles
Clouds
  • Scattered at 3,500' AGL
Temperature Dewpoint
-2°C / 28°F -6°C / 21°F
Humidity Altimeter Pressure
74% 29.92" Hg 1015.2 hPa